PWSweather.com
Personal Weather Stations
Station Observations
ESTGRALPAZ
Santa Fe, Santa FeAR 3000

Santa FeSanta FeAR 3000

Lat: -31.6280555556, Lon: -60.6908333333

Elevation: 69

Station Type: WH1081

http://www.estaciongralpaz.com.ar

Latest ConditionsUpdated 1:49:00 AM GMT-03:57 Wednesday, Feb 20, 2019
Currently Today's Max Today's Min Today's Average
Temperature 83.8°F28.8°C 85.6°F29.8°C 83.8°F28.8°C 84.7°F29.3°C
Dew Point 70.9°F21.6°C 75.2°F24.0°C 70.9°F21.6°C 72.8°F22.7°C
Winds 3.1 mph N5.0 kmh N 5.4 mph -8.7 kmh - - 3.0 mph 4.8 kmh
Wind Gusts 6.0 mph9.7 kmh 7.6 mph12.2 kmh - -
Humidity 65% 71% 65% 68%
Pressure 29.67 in1004.7 mb 29.67 in1004.7 mb 29.66 in1004.4 mb -
Hour Temp Dew Point Humidity Winds Wind Gusts Pressure Precip Precip Rate Daily Precip Total
01:49 AM 83.8°F28.8°C 70.9°F21.6°C 65% 3.1 mph N5.0 kmh N 6.0 mph9.7 kmh 29.67 in1004.7 mb 0.00 in0.0 mm 0.00 in0.0 mm 0.00 in0.0 mm
01:48 AM 83.8°F28.8°C 70.9°F21.6°C 65% 3.8 mph N6.1 kmh N 6.0 mph9.7 kmh 29.67 in1004.7 mb 0.00 in0.0 mm 0.00 in0.0 mm 0.00 in0.0 mm
01:47 AM 83.8°F28.8°C 70.9°F21.6°C 65% 3.1 mph N5.0 kmh N 7.6 mph12.2 kmh 29.67 in1004.7 mb 0.00 in0.0 mm 0.00 in0.0 mm 0.00 in0.0 mm
01:46 AM 83.8°F28.8°C 70.9°F21.6°C 65% 3.8 mph N6.1 kmh N 7.6 mph12.2 kmh 29.67 in1004.7 mb 0.00 in0.0 mm 0.00 in0.0 mm 0.00 in0.0 mm
01:45 AM 83.8°F28.8°C 70.9°F21.6°C 65% 3.8 mph N6.1 kmh N 7.6 mph12.2 kmh 29.67 in1004.7 mb 0.00 in0.0 mm 0.00 in0.0 mm 0.00 in0.0 mm
01:44 AM 84.0°F28.9°C 71.0°F21.7°C 65% 4.5 mph N7.2 kmh N 7.6 mph12.2 kmh 29.67 in1004.7 mb 0.00 in0.0 mm 0.00 in0.0 mm 0.00 in0.0 mm
01:43 AM 84.0°F28.9°C 71.0°F21.7°C 65% 3.8 mph N6.1 kmh N 7.6 mph12.2 kmh 29.67 in1004.7 mb 0.00 in0.0 mm 0.00 in0.0 mm 0.00 in0.0 mm
01:42 AM 84.0°F28.9°C 71.0°F21.7°C 65% 3.8 mph N6.1 kmh N 7.6 mph12.2 kmh 29.67 in1004.7 mb 0.00 in0.0 mm 0.00 in0.0 mm 0.00 in0.0 mm
01:41 AM 84.0°F28.9°C 71.0°F21.7°C 65% 2.2 mph N3.5 kmh N 7.6 mph12.2 kmh 29.66 in1004.4 mb 0.00 in0.0 mm 0.00 in0.0 mm 0.00 in0.0 mm
01:40 AM 84.0°F28.9°C 71.0°F21.7°C 65% 3.8 mph N6.1 kmh N 7.6 mph12.2 kmh 29.67 in1004.7 mb 0.00 in0.0 mm 0.00 in0.0 mm 0.00 in0.0 mm
01:39 AM 84.0°F28.9°C 71.0°F21.7°C 65% 3.1 mph N5.0 kmh N 7.6 mph12.2 kmh 29.67 in1004.7 mb 0.00 in0.0 mm 0.00 in0.0 mm 0.00 in0.0 mm
01:38 AM 84.0°F28.9°C 71.0°F21.7°C 65% 3.1 mph N5.0 kmh N 7.6 mph12.2 kmh 29.67 in1004.7 mb 0.00 in0.0 mm 0.00 in0.0 mm 0.00 in0.0 mm
01:37 AM 84.0°F28.9°C 71.0°F21.7°C 65% 3.8 mph N6.1 kmh N 7.6 mph12.2 kmh 29.66 in1004.4 mb 0.00 in0.0 mm 0.00 in0.0 mm 0.00 in0.0 mm
01:36 AM 84.0°F28.9°C 71.5°F21.9°C 66% 3.8 mph N6.1 kmh N 7.0 mph11.3 kmh 29.67 in1004.7 mb 0.00 in0.0 mm 0.00 in0.0 mm 0.00 in0.0 mm
01:35 AM 84.0°F28.9°C 71.5°F21.9°C 66% 4.5 mph N7.2 kmh N 7.0 mph11.3 kmh 29.67 in1004.7 mb 0.00 in0.0 mm 0.00 in0.0 mm 0.00 in0.0 mm
01:34 AM 84.0°F28.9°C 71.4°F21.9°C 66% 3.8 mph N6.1 kmh N 7.0 mph11.3 kmh 29.67 in1004.7 mb 0.00 in0.0 mm 0.00 in0.0 mm 0.00 in0.0 mm
01:33 AM 84.0°F28.9°C 71.5°F21.9°C 66% 2.2 mph N3.5 kmh N 6.9 mph11.1 kmh 29.67 in1004.7 mb 0.00 in0.0 mm 0.00 in0.0 mm 0.00 in0.0 mm
01:32 AM 84.0°F28.9°C 71.9°F22.2°C 67% 4.5 mph N7.2 kmh N 6.9 mph11.1 kmh 29.67 in1004.7 mb 0.00 in0.0 mm 0.00 in0.0 mm 0.00 in0.0 mm
01:31 AM 84.0°F28.9°C 71.9°F22.2°C 67% 3.1 mph N5.0 kmh N 6.9 mph11.1 kmh 29.67 in1004.7 mb 0.00 in0.0 mm 0.00 in0.0 mm 0.00 in0.0 mm
01:30 AM 84.0°F28.9°C 71.9°F22.2°C 67% 3.8 mph N6.1 kmh N 6.9 mph11.1 kmh 29.67 in1004.7 mb 0.00 in0.0 mm 0.00 in0.0 mm 0.00 in0.0 mm
01:29 AM 84.0°F28.9°C 72.4°F22.4°C 68% 3.8 mph N6.1 kmh N 6.0 mph9.7 kmh 29.67 in1004.7 mb 0.00 in0.0 mm 0.00 in0.0 mm 0.00 in0.0 mm
01:28 AM 84.0°F28.9°C 72.4°F22.4°C 68% 1.6 mph N2.6 kmh N 6.0 mph9.7 kmh 29.67 in1004.7 mb 0.00 in0.0 mm 0.00 in0.0 mm 0.00 in0.0 mm
01:27 AM 84.0°F28.9°C 72.4°F22.4°C 68% 2.2 mph N3.5 kmh N 6.0 mph9.7 kmh 29.67 in1004.7 mb 0.00 in0.0 mm 0.00 in0.0 mm 0.00 in0.0 mm
01:26 AM 84.0°F28.9°C 72.4°F22.4°C 68% 3.1 mph N5.0 kmh N 6.0 mph9.7 kmh 29.67 in1004.7 mb 0.00 in0.0 mm 0.00 in0.0 mm 0.00 in0.0 mm
01:25 AM 84.0°F28.9°C 72.4°F22.4°C 68% 3.1 mph N5.0 kmh N 6.0 mph9.7 kmh 29.67 in1004.7 mb 0.00 in0.0 mm 0.00 in0.0 mm 0.00 in0.0 mm
01:24 AM 84.0°F28.9°C 72.4°F22.4°C 68% 3.8 mph N6.1 kmh N 6.0 mph9.7 kmh 29.66 in1004.4 mb 0.00 in0.0 mm 0.00 in0.0 mm 0.00 in0.0 mm
01:23 AM 84.0°F28.9°C 72.8°F22.7°C 69% 3.8 mph N6.1 kmh N 6.0 mph9.7 kmh 29.66 in1004.4 mb 0.00 in0.0 mm 0.00 in0.0 mm 0.00 in0.0 mm
01:22 AM 84.0°F28.9°C 72.8°F22.7°C 69% 2.2 mph N3.5 kmh N 6.0 mph9.7 kmh 29.67 in1004.7 mb 0.00 in0.0 mm 0.00 in0.0 mm 0.00 in0.0 mm
01:21 AM 84.0°F28.9°C 72.8°F22.7°C 69% 3.8 mph N6.1 kmh N 6.0 mph9.7 kmh 29.66 in1004.4 mb 0.00 in0.0 mm 0.00 in0.0 mm 0.00 in0.0 mm
01:20 AM 84.0°F28.9°C 72.8°F22.7°C 69% 3.1 mph N5.0 kmh N 6.0 mph9.7 kmh 29.67 in1004.7 mb 0.00 in0.0 mm 0.00 in0.0 mm 0.00 in0.0 mm
01:19 AM 84.0°F28.9°C 72.8°F22.7°C 69% 3.1 mph N5.0 kmh N 6.0 mph9.7 kmh 29.67 in1004.7 mb 0.00 in0.0 mm 0.00 in0.0 mm 0.00 in0.0 mm
01:18 AM 84.0°F28.9°C 72.8°F22.7°C 69% 3.8 mph N6.1 kmh N 6.0 mph9.7 kmh 29.67 in1004.7 mb 0.00 in0.0 mm 0.00 in0.0 mm 0.00 in0.0 mm
01:17 AM 84.0°F28.9°C 72.8°F22.7°C 69% 1.6 mph N2.6 kmh N 6.0 mph9.7 kmh 29.67 in1004.7 mb 0.00 in0.0 mm 0.00 in0.0 mm 0.00 in0.0 mm
01:16 AM 84.2°F29.0°C 72.6°F22.6°C 68% 3.1 mph N5.0 kmh N 6.0 mph9.7 kmh 29.66 in1004.4 mb 0.00 in0.0 mm 0.00 in0.0 mm 0.00 in0.0 mm
01:15 AM 84.2°F29.0°C 73.0°F22.8°C 69% 3.8 mph NNW6.1 kmh NNW 6.0 mph9.7 kmh 29.66 in1004.4 mb 0.00 in0.0 mm 0.00 in0.0 mm 0.00 in0.0 mm
01:14 AM 84.2°F29.0°C 73.0°F22.8°C 69% 1.6 mph NNW2.6 kmh NNW 6.0 mph9.7 kmh 29.66 in1004.4 mb 0.00 in0.0 mm 0.00 in0.0 mm 0.00 in0.0 mm
01:13 AM 84.2°F29.0°C 73.0°F22.8°C 69% 2.2 mph NNW3.5 kmh NNW 6.0 mph9.7 kmh 29.67 in1004.7 mb 0.00 in0.0 mm 0.00 in0.0 mm 0.00 in0.0 mm
01:12 AM 84.2°F29.0°C 73.0°F22.8°C 69% 3.1 mph N5.0 kmh N 6.0 mph9.7 kmh 29.67 in1004.7 mb 0.00 in0.0 mm 0.00 in0.0 mm 0.00 in0.0 mm
01:11 AM 84.2°F29.0°C 73.0°F22.8°C 69% 3.1 mph NNW5.0 kmh NNW 6.0 mph9.7 kmh 29.67 in1004.7 mb 0.00 in0.0 mm 0.00 in0.0 mm 0.00 in0.0 mm
01:10 AM 84.2°F29.0°C 73.0°F22.8°C 69% 2.2 mph N3.5 kmh N 6.0 mph9.7 kmh 29.66 in1004.4 mb 0.00 in0.0 mm 0.00 in0.0 mm 0.00 in0.0 mm
01:09 AM 84.2°F29.0°C 72.6°F22.6°C 68% 3.8 mph N6.1 kmh N 6.0 mph9.7 kmh 29.66 in1004.4 mb 0.00 in0.0 mm 0.00 in0.0 mm 0.00 in0.0 mm
01:08 AM 84.4°F29.1°C 72.7°F22.6°C 68% 2.2 mph N3.5 kmh N 6.0 mph9.7 kmh 29.66 in1004.4 mb 0.00 in0.0 mm 0.00 in0.0 mm 0.00 in0.0 mm
01:07 AM 84.4°F29.1°C 72.7°F22.6°C 68% 3.8 mph N6.1 kmh N 6.0 mph9.7 kmh 29.66 in1004.4 mb 0.00 in0.0 mm 0.00 in0.0 mm 0.00 in0.0 mm
01:06 AM 84.4°F29.1°C 72.7°F22.6°C 68% 1.6 mph N2.6 kmh N 6.0 mph9.7 kmh 29.67 in1004.7 mb 0.00 in0.0 mm 0.00 in0.0 mm 0.00 in0.0 mm
01:05 AM 84.4°F29.1°C 72.7°F22.6°C 68% 3.1 mph N5.0 kmh N 7.0 mph11.3 kmh 29.66 in1004.4 mb 0.00 in0.0 mm 0.00 in0.0 mm 0.00 in0.0 mm
01:04 AM 84.4°F29.1°C 72.7°F22.6°C 68% 3.1 mph N5.0 kmh N 7.0 mph11.3 kmh 29.67 in1004.7 mb 0.00 in0.0 mm 0.00 in0.0 mm 0.00 in0.0 mm
01:03 AM 84.6°F29.2°C 72.9°F22.7°C 68% 2.2 mph N3.5 kmh N 7.0 mph11.3 kmh 29.66 in1004.4 mb 0.00 in0.0 mm 0.00 in0.0 mm 0.00 in0.0 mm
01:02 AM 84.6°F29.2°C 72.8°F22.7°C 68% 3.8 mph N6.1 kmh N 7.0 mph11.3 kmh 29.66 in1004.4 mb 0.00 in0.0 mm 0.00 in0.0 mm 0.00 in0.0 mm
01:01 AM 84.6°F29.2°C 72.9°F22.7°C 68% 3.8 mph N6.1 kmh N 7.0 mph11.3 kmh 29.66 in1004.4 mb 0.00 in0.0 mm 0.00 in0.0 mm 0.00 in0.0 mm
12:59 AM 84.7°F29.3°C 72.6°F22.6°C 67% 2.2 mph N3.5 kmh N 6.9 mph11.1 kmh 29.67 in1004.7 mb 0.00 in0.0 mm 0.00 in0.0 mm 0.00 in0.0 mm
12:58 AM 84.7°F29.3°C 72.6°F22.6°C 67% 3.8 mph N6.1 kmh N 6.9 mph11.1 kmh 29.66 in1004.4 mb 0.00 in0.0 mm 0.00 in0.0 mm 0.00 in0.0 mm
12:57 AM 84.7°F29.3°C 72.6°F22.6°C 67% 3.1 mph N5.0 kmh N 6.9 mph11.1 kmh 29.66 in1004.4 mb 0.00 in0.0 mm 0.00 in0.0 mm 0.00 in0.0 mm
12:56 AM 84.7°F29.3°C 72.6°F22.6°C 67% 3.1 mph N5.0 kmh N 6.9 mph11.1 kmh 29.66 in1004.4 mb 0.00 in0.0 mm 0.00 in0.0 mm 0.00 in0.0 mm
12:55 AM 84.7°F29.3°C 72.6°F22.6°C 67% 4.5 mph N7.2 kmh N 6.9 mph11.1 kmh 29.66 in1004.4 mb 0.00 in0.0 mm 0.00 in0.0 mm 0.00 in0.0 mm
12:54 AM 84.7°F29.3°C 72.6°F22.6°C 67% 3.8 mph N6.1 kmh N 5.4 mph8.7 kmh 29.66 in1004.4 mb 0.00 in0.0 mm 0.00 in0.0 mm 0.00 in0.0 mm
12:53 AM 84.9°F29.4°C 72.8°F22.7°C 67% 3.1 mph N5.0 kmh N 5.4 mph8.7 kmh 29.67 in1004.7 mb 0.00 in0.0 mm 0.00 in0.0 mm 0.00 in0.0 mm
12:52 AM 84.9°F29.4°C 72.8°F22.7°C 67% 3.1 mph N5.0 kmh N 5.4 mph8.7 kmh 29.66 in1004.4 mb 0.00 in0.0 mm 0.00 in0.0 mm 0.00 in0.0 mm
12:51 AM 84.9°F29.4°C 72.8°F22.7°C 67% 2.2 mph N3.5 kmh N 5.4 mph8.7 kmh 29.67 in1004.7 mb 0.00 in0.0 mm 0.00 in0.0 mm 0.00 in0.0 mm
12:50 AM 84.9°F29.4°C 72.8°F22.7°C 67% 2.2 mph N3.5 kmh N 5.4 mph8.7 kmh 29.66 in1004.4 mb 0.00 in0.0 mm 0.00 in0.0 mm 0.00 in0.0 mm
12:49 AM 84.9°F29.4°C 72.8°F22.7°C 67% 3.8 mph N6.1 kmh N 5.4 mph8.7 kmh 29.67 in1004.7 mb 0.00 in0.0 mm 0.00 in0.0 mm 0.00 in0.0 mm
12:48 AM 84.9°F29.4°C 72.8°F22.7°C 67% 3.1 mph N5.0 kmh N 5.4 mph8.7 kmh 29.66 in1004.4 mb 0.00 in0.0 mm 0.00 in0.0 mm 0.00 in0.0 mm
12:47 AM 84.9°F29.4°C 72.8°F22.7°C 67% 1.6 mph N2.6 kmh N 5.4 mph8.7 kmh 29.66 in1004.4 mb 0.00 in0.0 mm 0.00 in0.0 mm 0.00 in0.0 mm
12:46 AM 84.9°F29.4°C 72.8°F22.7°C 67% 3.8 mph N6.1 kmh N 5.4 mph8.7 kmh 29.66 in1004.4 mb 0.00 in0.0 mm 0.00 in0.0 mm 0.00 in0.0 mm
12:45 AM 84.9°F29.4°C 72.8°F22.7°C 67% 0.7 mph N1.1 kmh N 4.5 mph7.2 kmh 29.66 in1004.4 mb 0.00 in0.0 mm 0.00 in0.0 mm 0.00 in0.0 mm
12:44 AM 84.9°F29.4°C 72.8°F22.7°C 67% 1.6 mph N2.6 kmh N 5.4 mph8.7 kmh 29.66 in1004.4 mb 0.00 in0.0 mm 0.00 in0.0 mm 0.00 in0.0 mm
12:43 AM 84.9°F29.4°C 72.8°F22.7°C 67% 1.6 mph N2.6 kmh N 6.0 mph9.7 kmh 29.66 in1004.4 mb 0.00 in0.0 mm 0.00 in0.0 mm 0.00 in0.0 mm
12:42 AM 84.9°F29.4°C 72.8°F22.7°C 67% 0.7 mph N1.1 kmh N 6.0 mph9.7 kmh 29.66 in1004.4 mb 0.00 in0.0 mm 0.00 in0.0 mm 0.00 in0.0 mm
12:41 AM 84.9°F29.4°C 72.8°F22.7°C 67% 2.2 mph N3.5 kmh N 6.0 mph9.7 kmh 29.66 in1004.4 mb 0.00 in0.0 mm 0.00 in0.0 mm 0.00 in0.0 mm
12:40 AM 84.9°F29.4°C 72.8°F22.7°C 67% 2.2 mph N3.5 kmh N 6.0 mph9.7 kmh 29.66 in1004.4 mb 0.00 in0.0 mm 0.00 in0.0 mm 0.00 in0.0 mm
12:39 AM 85.1°F29.5°C 73.0°F22.8°C 67% 1.6 mph N2.6 kmh N 6.0 mph9.7 kmh 29.67 in1004.7 mb 0.00 in0.0 mm 0.00 in0.0 mm 0.00 in0.0 mm
12:38 AM 85.1°F29.5°C 73.0°F22.8°C 67% 2.2 mph N3.5 kmh N 6.0 mph9.7 kmh 29.66 in1004.4 mb 0.00 in0.0 mm 0.00 in0.0 mm 0.00 in0.0 mm
12:37 AM 85.1°F29.5°C 73.0°F22.8°C 67% 3.1 mph N5.0 kmh N 6.0 mph9.7 kmh 29.66 in1004.4 mb 0.00 in0.0 mm 0.00 in0.0 mm 0.00 in0.0 mm
12:36 AM 85.1°F29.5°C 73.0°F22.8°C 67% 2.2 mph N3.5 kmh N 6.0 mph9.7 kmh 29.67 in1004.7 mb 0.00 in0.0 mm 0.00 in0.0 mm 0.00 in0.0 mm
12:35 AM 85.1°F29.5°C 73.0°F22.8°C 67% 2.2 mph N3.5 kmh N 6.0 mph9.7 kmh 29.67 in1004.7 mb 0.00 in0.0 mm 0.00 in0.0 mm 0.00 in0.0 mm
12:34 AM 85.1°F29.5°C 73.0°F22.8°C 67% 3.8 mph N6.1 kmh N 6.0 mph9.7 kmh 29.67 in1004.7 mb 0.00 in0.0 mm 0.00 in0.0 mm 0.00 in0.0 mm
12:33 AM 85.1°F29.5°C 73.0°F22.8°C 67% 3.8 mph N6.1 kmh N 6.0 mph9.7 kmh 29.66 in1004.4 mb 0.00 in0.0 mm 0.00 in0.0 mm 0.00 in0.0 mm
12:32 AM 85.3°F29.6°C 73.1°F22.8°C 67% 3.8 mph N6.1 kmh N 6.0 mph9.7 kmh 29.67 in1004.7 mb 0.00 in0.0 mm 0.00 in0.0 mm 0.00 in0.0 mm
12:31 AM 85.3°F29.6°C 73.1°F22.8°C 67% 1.6 mph N2.6 kmh N 6.0 mph9.7 kmh 29.66 in1004.4 mb 0.00 in0.0 mm 0.00 in0.0 mm 0.00 in0.0 mm
12:30 AM 85.3°F29.6°C 73.1°F22.8°C 67% 2.2 mph N3.5 kmh N 6.0 mph9.7 kmh 29.66 in1004.4 mb 0.00 in0.0 mm 0.00 in0.0 mm 0.00 in0.0 mm
12:29 AM 85.3°F29.6°C 73.1°F22.8°C 67% 3.1 mph N5.0 kmh N 6.0 mph9.7 kmh 29.66 in1004.4 mb 0.00 in0.0 mm 0.00 in0.0 mm 0.00 in0.0 mm
12:28 AM 85.3°F29.6°C 73.1°F22.8°C 67% 3.1 mph N5.0 kmh N 6.0 mph9.7 kmh 29.66 in1004.4 mb 0.00 in0.0 mm 0.00 in0.0 mm 0.00 in0.0 mm
12:27 AM 85.3°F29.6°C 73.1°F22.8°C 67% 1.6 mph N2.6 kmh N 6.0 mph9.7 kmh 29.66 in1004.4 mb 0.00 in0.0 mm 0.00 in0.0 mm 0.00 in0.0 mm
12:26 AM 85.3°F29.6°C 73.1°F22.8°C 67% 2.2 mph N3.5 kmh N 6.0 mph9.7 kmh 29.67 in1004.7 mb 0.00 in0.0 mm 0.00 in0.0 mm 0.00 in0.0 mm
12:25 AM 85.3°F29.6°C 73.1°F22.8°C 67% 2.2 mph N3.5 kmh N 6.0 mph9.7 kmh 29.66 in1004.4 mb 0.00 in0.0 mm 0.00 in0.0 mm 0.00 in0.0 mm
12:24 AM 85.3°F29.6°C 73.1°F22.8°C 67% 2.2 mph N3.5 kmh N 6.0 mph9.7 kmh 29.66 in1004.4 mb 0.00 in0.0 mm 0.00 in0.0 mm 0.00 in0.0 mm
12:23 AM 85.3°F29.6°C 73.1°F22.8°C 67% 4.5 mph N7.2 kmh N 7.6 mph12.2 kmh 29.67 in1004.7 mb 0.00 in0.0 mm 0.00 in0.0 mm 0.00 in0.0 mm
12:22 AM 85.3°F29.6°C 73.1°F22.8°C 67% 4.5 mph N7.2 kmh N 7.6 mph12.2 kmh 29.67 in1004.7 mb 0.00 in0.0 mm 0.00 in0.0 mm 0.00 in0.0 mm
12:21 AM 85.3°F29.6°C 73.1°F22.8°C 67% 2.2 mph N3.5 kmh N 7.6 mph12.2 kmh 29.67 in1004.7 mb 0.00 in0.0 mm 0.00 in0.0 mm 0.00 in0.0 mm
12:20 AM 85.5°F29.7°C 73.8°F23.2°C 68% 3.8 mph N6.1 kmh N 7.6 mph12.2 kmh 29.66 in1004.4 mb 0.00 in0.0 mm 0.00 in0.0 mm 0.00 in0.0 mm
12:19 AM 85.5°F29.7°C 73.8°F23.2°C 68% 1.6 mph N2.6 kmh N 7.6 mph12.2 kmh 29.66 in1004.4 mb 0.00 in0.0 mm 0.00 in0.0 mm 0.00 in0.0 mm
12:18 AM 85.5°F29.7°C 73.8°F23.2°C 68% 1.6 mph N2.6 kmh N 7.6 mph12.2 kmh 29.66 in1004.4 mb 0.00 in0.0 mm 0.00 in0.0 mm 0.00 in0.0 mm
12:17 AM 85.5°F29.7°C 73.8°F23.2°C 68% 3.1 mph N5.0 kmh N 7.6 mph12.2 kmh 29.66 in1004.4 mb 0.00 in0.0 mm 0.00 in0.0 mm 0.00 in0.0 mm
12:16 AM 85.5°F29.7°C 73.8°F23.2°C 68% 3.1 mph N5.0 kmh N 7.6 mph12.2 kmh 29.66 in1004.4 mb 0.00 in0.0 mm 0.00 in0.0 mm 0.00 in0.0 mm
12:15 AM 85.3°F29.6°C 73.6°F23.1°C 68% 2.2 mph N3.5 kmh N 7.6 mph12.2 kmh 29.66 in1004.4 mb 0.00 in0.0 mm 0.00 in0.0 mm 0.00 in0.0 mm
12:14 AM 85.3°F29.6°C 74.0°F23.3°C 69% 3.8 mph N6.1 kmh N 7.6 mph12.2 kmh 29.66 in1004.4 mb 0.00 in0.0 mm 0.00 in0.0 mm 0.00 in0.0 mm
12:13 AM 85.5°F29.7°C 74.2°F23.4°C 69% 5.4 mph N8.7 kmh N 7.6 mph12.2 kmh 29.67 in1004.7 mb 0.00 in0.0 mm 0.00 in0.0 mm 0.00 in0.0 mm
12:12 AM 85.5°F29.7°C 74.2°F23.4°C 69% 4.5 mph N7.2 kmh N 6.9 mph11.1 kmh 29.66 in1004.4 mb 0.00 in0.0 mm 0.00 in0.0 mm 0.00 in0.0 mm
12:11 AM 85.5°F29.7°C 74.6°F23.7°C 70% 3.8 mph N6.1 kmh N 6.9 mph11.1 kmh 29.67 in1004.7 mb 0.00 in0.0 mm 0.00 in0.0 mm 0.00 in0.0 mm
12:10 AM 85.5°F29.7°C 74.6°F23.7°C 70% 4.5 mph N7.2 kmh N 6.9 mph11.1 kmh 29.66 in1004.4 mb 0.00 in0.0 mm 0.00 in0.0 mm 0.00 in0.0 mm
12:09 AM 85.5°F29.7°C 74.6°F23.7°C 70% 3.8 mph N6.1 kmh N 6.9 mph11.1 kmh 29.67 in1004.7 mb 0.00 in0.0 mm 0.00 in0.0 mm 0.00 in0.0 mm
12:08 AM 85.5°F29.7°C 74.6°F23.7°C 70% 5.4 mph N8.7 kmh N 6.9 mph11.1 kmh 29.67 in1004.7 mb 0.00 in0.0 mm 0.00 in0.0 mm 0.00 in0.0 mm
12:07 AM 85.5°F29.7°C 75.0°F23.9°C 71% 3.1 mph N5.0 kmh N 6.0 mph9.7 kmh 29.66 in1004.4 mb 0.00 in0.0 mm 0.00 in0.0 mm 0.00 in0.0 mm
12:06 AM 85.5°F29.7°C 75.0°F23.9°C 71% 3.1 mph N5.0 kmh N 6.0 mph9.7 kmh 29.67 in1004.7 mb 0.00 in0.0 mm 0.00 in0.0 mm 0.00 in0.0 mm
12:05 AM 85.6°F29.8°C 75.2°F24.0°C 71% 3.8 mph N6.1 kmh N 6.0 mph9.7 kmh 29.66 in1004.4 mb 0.00 in0.0 mm 0.00 in0.0 mm 0.00 in0.0 mm
12:04 AM 85.6°F29.8°C 75.2°F24.0°C 71% 1.6 mph N2.6 kmh N 6.0 mph9.7 kmh 29.67 in1004.7 mb 0.00 in0.0 mm 0.00 in0.0 mm 0.00 in0.0 mm
12:03 AM 85.6°F29.8°C 75.2°F24.0°C 71% 2.2 mph N3.5 kmh N 6.0 mph9.7 kmh 29.67 in1004.7 mb 0.00 in0.0 mm 0.00 in0.0 mm 0.00 in0.0 mm
12:02 AM 85.6°F29.8°C 75.2°F24.0°C 71% 4.5 mph N7.2 kmh N 6.0 mph9.7 kmh 29.66 in1004.4 mb 0.00 in0.0 mm 0.00 in0.0 mm 0.00 in0.0 mm
12:00 AM 85.6°F29.8°C 75.2°F24.0°C 71% 2.2 mph N3.5 kmh N 5.4 mph8.7 kmh 29.66 in1004.4 mb 0.00 in0.0 mm 0.00 in0.0 mm 0.00 in0.0 mm